Time;durP1;ratioP1;P1;durP2;ratioP2;P2;SDS_P1;SDS_P2;PMS_P1;PMS_P2;Temp;Humidity;BMP_temperature;BMP_pressure;BME280_temperature;BME280_humidity;BME280_pressure;Samples;Min_cycle;Max_cycle;Signal;HPM_P1;HPM_P2
2022/02/02 00:04:51;;;;;;;50.03;25.75;;;;;;;;;;5030722;28;20095;-63
2022/02/02 00:07:48;;;;;;;47.70;24.52;;;;;;;;;;5030659;28;20120;-63
2022/02/02 00:10:44;;;;;;;52.83;25.52;;;;;;;;;;5030706;28;20501;-63
2022/02/02 00:13:13;;;;;;;45.65;23.77;;;;;;;;;;5030349;28;20082;-64
2022/02/02 00:20:49;;;;;;;54.65;26.25;;;;;;;;;;5030551;28;20448;-63
2022/02/02 00:23:18;;;;;;;51.70;25.33;;;;;;;;;;5030136;28;20041;-63
2022/02/02 00:25:52;;;;;;;55.20;26.50;;;;;;;;;;5031382;28;20060;-62
2022/02/02 00:28:22;;;;;;;52.17;26.33;;;;;;;;;;5052120;28;20032;-63
2022/02/02 00:30:48;;;;;;;56.53;27.73;;;;;;;;;;5052768;28;20419;-63
2022/02/02 00:33:28;;;;;;;53.28;25.35;;;;;;;;;;5052532;28;20112;-63
2022/02/02 00:36:02;;;;;;;53.47;24.63;;;;;;;;;;5052519;28;20485;-63
2022/02/02 00:38:28;;;;;;;53.03;25.38;;;;;;;;;;5052478;28;20025;-63
2022/02/02 00:40:54;;;;;;;52.92;26.92;;;;;;;;;;5052448;28;20499;-63
2022/02/02 00:43:20;;;;;;;46.10;24.67;;;;;;;;;;5051897;28;20132;-63
2022/02/02 00:45:47;;;;;;;56.75;27.73;;;;;;;;;;5052128;28;20021;-63
2022/02/02 00:48:16;;;;;;;55.75;27.25;;;;;;;;;;5052290;28;20025;-63
2022/02/02 00:50:42;;;;;;;63.75;29.33;;;;;;;;;;5052517;28;20021;-63
2022/02/02 00:53:10;;;;;;;61.65;29.65;;;;;;;;;;5051982;28;20033;-63
2022/02/02 00:55:37;;;;;;;63.17;29.60;;;;;;;;;;5052109;28;20504;-63
2022/02/02 00:58:03;;;;;;;60.28;30.65;;;;;;;;;;5051869;28;20029;-63
2022/02/02 01:00:30;;;;;;;64.93;31.75;;;;;;;;;;5051873;28;20017;-63
2022/02/02 01:02:56;;;;;;;63.20;30.30;;;;;;;;;;5051644;28;20076;-63
2022/02/02 01:05:22;;;;;;;57.88;27.90;;;;;;;;;;5052047;28;20065;-63
2022/02/02 01:08:23;;;;;;;51.78;25.30;;;;;;;;;;5051284;28;20464;-63
2022/02/02 01:10:43;;;;;;;56.35;25.98;;;;;;;;;;5051790;28;20431;-63
2022/02/02 01:21:03;;;;;;;57.17;25.98;;;;;;;;;;5051689;28;20025;-63
2022/02/02 01:29:00;;;;;;;48.72;24.63;;;;;;;;;;5051742;28;20048;-63
2022/02/02 01:31:26;;;;;;;48.53;24.13;;;;;;;;;;5051451;28;20032;-63
2022/02/02 01:33:52;;;;;;;47.75;24.70;;;;;;;;;;5051432;28;20071;-63
2022/02/02 01:36:18;;;;;;;46.95;23.88;;;;;;;;;;5051463;28;20091;-63
2022/02/02 01:38:46;;;;;;;44.00;23.35;;;;;;;;;;5051449;28;20473;-63
2022/02/02 01:41:22;;;;;;;51.42;25.52;;;;;;;;;;5051408;28;20028;-63
2022/02/02 01:43:59;;;;;;;49.45;23.95;;;;;;;;;;5051025;28;20033;-63
2022/02/02 01:46:29;;;;;;;50.10;23.92;;;;;;;;;;5051125;28;20017;-63
2022/02/02 01:53:59;;;;;;;49.63;23.52;;;;;;;;;;5051266;28;20048;-63
2022/02/02 01:56:25;;;;;;;51.45;24.40;;;;;;;;;;5051049;28;20444;-63
2022/02/02 01:59:03;;;;;;;51.08;24.13;;;;;;;;;;5050902;28;20067;-64
2022/02/02 02:01:29;;;;;;;48.28;23.60;;;;;;;;;;5050734;28;20425;-63
2022/02/02 02:03:55;;;;;;;45.10;21.98;;;;;;;;;;5050673;28;20044;-63
2022/02/02 02:06:21;;;;;;;45.72;21.90;;;;;;;;;;5051245;28;20036;-63
2022/02/02 02:08:47;;;;;;;48.78;23.23;;;;;;;;;;5050834;28;20118;-63
2022/02/02 02:11:19;;;;;;;49.83;22.48;;;;;;;;;;5050908;28;20048;-63
2022/02/02 02:16:12;;;;;;;49.78;22.73;;;;;;;;;;5050948;28;20035;-63
2022/02/02 02:18:38;;;;;;;47.50;23.00;;;;;;;;;;5052238;28;20029;-63
2022/02/02 02:21:10;;;;;;;46.22;22.85;;;;;;;;;;5055193;28;20043;-63
2022/02/02 02:23:36;;;;;;;43.47;22.67;;;;;;;;;;5054889;28;20040;-63
2022/02/02 02:26:02;;;;;;;36.20;21.20;;;;;;;;;;5054828;28;20060;-63
2022/02/02 02:29:01;;;;;;;42.33;20.35;;;;;;;;;;5054973;28;20044;-63
2022/02/02 02:35:18;;;;;;;43.63;21.13;;;;;;;;;;5055254;28;20086;-63
2022/02/02 02:39:38;;;;;;;48.10;21.52;;;;;;;;;;5054935;28;20040;-63
2022/02/02 02:55:57;;;;;;;43.20;21.73;;;;;;;;;;5054784;28;20051;-63
2022/02/02 03:31:34;;;;;;;40.35;19.23;;;;;;;;;;5052980;28;20090;-63
2022/02/02 03:56:13;;;;;;;36.70;16.38;;;;;;;;;;5053444;28;20459;-63
2022/02/02 03:58:41;;;;;;;36.22;17.02;;;;;;;;;;5053164;28;20106;-63
2022/02/02 04:01:20;;;;;;;37.72;16.83;;;;;;;;;;5053159;28;20029;-63
2022/02/02 04:04:06;;;;;;;37.80;18.50;;;;;;;;;;5053201;28;20048;-63
2022/02/02 04:06:33;;;;;;;40.67;18.20;;;;;;;;;;5053308;28;20025;-63
2022/02/02 04:08:59;;;;;;;40.72;18.15;;;;;;;;;;5053145;28;20020;-63
2022/02/02 04:11:35;;;;;;;38.15;17.50;;;;;;;;;;5053147;28;20029;-63
2022/02/02 04:38:55;;;;;;;42.03;17.88;;;;;;;;;;5052445;28;20499;-63
2022/02/02 04:53:00;;;;;;;37.58;17.90;;;;;;;;;;5052295;28;20122;-63
2022/02/02 05:53:47;;;;;;;34.85;15.40;;;;;;;;;;5048627;28;20037;-63
2022/02/02 05:56:13;;;;;;;35.65;16.48;;;;;;;;;;5048849;28;20029;-63
2022/02/02 05:58:40;;;;;;;39.38;17.10;;;;;;;;;;5048766;28;20586;-63
2022/02/02 06:01:10;;;;;;;38.47;18.35;;;;;;;;;;5048310;28;20144;-63
2022/02/02 06:03:43;;;;;;;41.97;18.27;;;;;;;;;;5048048;28;20099;-63
2022/02/02 06:06:10;;;;;;;34.78;16.42;;;;;;;;;;5048611;28;20420;-63
2022/02/02 06:08:36;;;;;;;42.97;19.45;;;;;;;;;;5048229;28;20194;-63
2022/02/02 06:11:05;;;;;;;40.60;19.75;;;;;;;;;;5047714;28;20128;-63
2022/02/02 06:13:42;;;;;;;46.45;19.90;;;;;;;;;;5048353;28;20545;-63
2022/02/02 06:16:08;;;;;;;63.17;29.38;;;;;;;;;;5048449;28;20021;-63
2022/02/02 06:18:35;;;;;;;39.15;17.40;;;;;;;;;;5048418;28;20057;-63
2022/02/02 06:21:04;;;;;;;40.83;18.80;;;;;;;;;;5050102;28;20033;-64
2022/02/02 06:23:31;;;;;;;39.80;18.27;;;;;;;;;;5049181;28;20039;-63
2022/02/02 06:25:59;;;;;;;42.40;20.92;;;;;;;;;;5050625;28;20485;-63
2022/02/02 06:28:27;;;;;;;102.10;45.42;;;;;;;;;;5050762;28;20029;-63
2022/02/02 06:30:57;;;;;;;35.75;17.52;;;;;;;;;;5050781;28;20026;-63
2022/02/02 06:33:31;;;;;;;41.97;16.45;;;;;;;;;;5050737;28;20037;-64
2022/02/02 06:35:57;;;;;;;38.20;17.38;;;;;;;;;;5051014;28;20384;-64
2022/02/02 06:38:23;;;;;;;40.20;17.55;;;;;;;;;;5050657;28;20029;-64
2022/02/02 06:40:53;;;;;;;45.53;20.02;;;;;;;;;;5050499;28;20053;-64
2022/02/02 06:43:23;;;;;;;179.27;75.30;;;;;;;;;;5050585;28;20033;-65
2022/02/02 06:45:50;;;;;;;83.10;37.30;;;;;;;;;;5045544;28;20029;-65
2022/02/02 06:48:16;;;;;;;271.70;112.72;;;;;;;;;;5037739;28;20033;-65
2022/02/02 06:50:51;;;;;;;239.13;102.32;;;;;;;;;;5038798;28;20060;-64
2022/02/02 06:53:29;;;;;;;149.35;68.68;;;;;;;;;;5038264;28;20032;-64
2022/02/02 07:04:41;;;;;;;138.00;57.50;;;;;;;;;;5028336;28;20081;-64
2022/02/02 07:07:20;;;;;;;136.57;59.38;;;;;;;;;;5020086;28;20029;-64
2022/02/02 07:10:10;;;;;;;93.13;40.53;;;;;;;;;;5019829;28;20037;-63
2022/02/02 07:13:00;;;;;;;122.30;54.50;;;;;;;;;;5022842;28;20033;-64
2022/02/02 07:18:51;;;;;;;165.27;91.30;;;;;;;;;;5031584;28;20139;-64
2022/02/02 07:21:20;;;;;;;128.68;61.80;;;;;;;;;;5025191;28;20030;-64
2022/02/02 07:32:08;;;;;;;46.38;22.50;;;;;;;;;;5013933;28;20025;-64
2022/02/02 07:34:45;;;;;;;46.33;20.58;;;;;;;;;;5015061;28;20041;-64
2022/02/02 07:37:17;;;;;;;69.95;30.73;;;;;;;;;;5043961;28;20021;-64
2022/02/02 07:39:45;;;;;;;87.30;38.13;;;;;;;;;;5037292;28;20031;-64
2022/02/02 07:42:12;;;;;;;96.30;43.58;;;;;;;;;;5042408;28;20029;-62
2022/02/02 07:44:39;;;;;;;78.45;38.53;;;;;;;;;;5033330;28;20029;-64
2022/02/02 07:47:10;;;;;;;65.68;31.90;;;;;;;;;;5034209;28;20527;-65
2022/02/02 07:49:40;;;;;;;62.63;30.80;;;;;;;;;;5036535;28;20048;-63
2022/02/02 07:52:08;;;;;;;73.25;34.92;;;;;;;;;;5041353;28;20017;-62
2022/02/02 07:54:40;;;;;;;116.75;49.30;;;;;;;;;;5042781;28;20024;-64
2022/02/02 07:57:15;;;;;;;125.97;55.30;;;;;;;;;;5041610;28;20029;-62
2022/02/02 08:02:13;;;;;;;132.80;58.00;;;;;;;;;;5043373;28;20483;-62
2022/02/02 08:04:39;;;;;;;111.55;50.75;;;;;;;;;;5042600;28;20036;-62
2022/02/02 08:07:08;;;;;;;58.78;27.92;;;;;;;;;;5039109;28;20082;-62
2022/02/02 08:09:46;;;;;;;42.30;21.02;;;;;;;;;;5043603;28;20381;-62
2022/02/02 08:12:17;;;;;;;40.53;16.77;;;;;;;;;;5041122;28;20021;-62
2022/02/02 08:14:45;;;;;;;34.03;16.55;;;;;;;;;;5042233;28;20029;-63
2022/02/02 08:17:11;;;;;;;33.50;16.00;;;;;;;;;;5041477;28;20017;-63
2022/02/02 08:19:39;;;;;;;38.90;16.83;;;;;;;;;;5042526;28;20025;-63
2022/02/02 08:22:05;;;;;;;32.88;17.17;;;;;;;;;;5043026;28;20017;-63
2022/02/02 08:24:32;;;;;;;36.47;16.02;;;;;;;;;;5041526;28;20061;-63
2022/02/02 08:26:58;;;;;;;37.30;16.75;;;;;;;;;;5042023;28;20613;-62
2022/02/02 08:29:26;;;;;;;36.70;17.20;;;;;;;;;;5043397;28;20496;-63
2022/02/02 08:31:52;;;;;;;37.00;17.42;;;;;;;;;;5041347;28;20024;-64
2022/02/02 08:34:18;;;;;;;37.50;16.33;;;;;;;;;;5041239;28;20033;-63
2022/02/02 08:36:52;;;;;;;28.17;14.35;;;;;;;;;;5042642;28;20029;-62
2022/02/02 08:39:48;;;;;;;36.95;15.70;;;;;;;;;;5042582;28;20120;-62
2022/02/02 08:42:15;;;;;;;31.00;15.43;;;;;;;;;;5041931;28;20500;-62
2022/02/02 08:44:49;;;;;;;30.85;14.57;;;;;;;;;;5040648;28;20040;-62
2022/02/02 08:47:19;;;;;;;31.65;14.32;;;;;;;;;;5040997;28;20017;-62
2022/02/02 08:49:53;;;;;;;31.15;15.23;;;;;;;;;;5041174;28;20029;-62
2022/02/02 08:52:26;;;;;;;32.63;14.50;;;;;;;;;;5040755;28;20122;-62
2022/02/02 08:54:59;;;;;;;26.50;12.35;;;;;;;;;;5041746;28;20017;-62
2022/02/02 09:00:10;;;;;;;24.45;12.75;;;;;;;;;;5052487;28;20436;-62
2022/02/02 09:02:38;;;;;;;27.67;13.55;;;;;;;;;;5051413;28;20130;-63
2022/02/02 09:05:25;;;;;;;31.83;15.13;;;;;;;;;;5045986;28;20493;-63
2022/02/02 09:07:52;;;;;;;28.92;14.60;;;;;;;;;;5036724;28;20033;-63
2022/02/02 09:19:58;;;;;;;31.92;14.95;;;;;;;;;;5031217;28;20030;-64
2022/02/02 09:24:00;;;;;;;23.48;11.65;;;;;;;;;;5031397;28;20531;-64
2022/02/02 09:31:27;;;;;;;25.10;12.25;;;;;;;;;;5031505;28;20128;-64
2022/02/02 09:34:41;;;;;;;24.83;9.82;;;;;;;;;;5030921;28;20115;-64
2022/02/02 09:37:07;;;;;;;21.27;9.77;;;;;;;;;;5031441;28;20034;-63
2022/02/02 09:39:41;;;;;;;27.60;11.55;;;;;;;;;;5031226;28;20025;-64
2022/02/02 09:42:13;;;;;;;22.17;9.88;;;;;;;;;;5032955;28;20613;-64
2022/02/02 09:44:42;;;;;;;21.50;9.77;;;;;;;;;;5050102;28;20460;-64
2022/02/02 09:52:25;;;;;;;21.52;9.07;;;;;;;;;;5051502;28;20116;-63
2022/02/02 10:03:08;;;;;;;29.27;12.45;;;;;;;;;;5050716;28;20044;-64
2022/02/02 10:05:46;;;;;;;33.83;13.50;;;;;;;;;;5049637;28;20404;-64
2022/02/02 10:08:49;;;;;;;28.40;12.73;;;;;;;;;;5050848;28;20130;-64
2022/02/02 10:14:14;;;;;;;26.20;12.73;;;;;;;;;;5049775;28;20046;-64
2022/02/02 10:16:44;;;;;;;26.17;12.98;;;;;;;;;;5050478;28;20465;-64
2022/02/02 10:19:21;;;;;;;28.95;13.68;;;;;;;;;;5050659;28;20020;-64
2022/02/02 10:21:47;;;;;;;28.88;14.45;;;;;;;;;;5049377;28;20041;-64
2022/02/02 10:24:13;;;;;;;24.85;13.02;;;;;;;;;;5050548;28;20045;-64
2022/02/02 10:26:52;;;;;;;26.75;13.48;;;;;;;;;;5050361;28;20036;-65
2022/02/02 10:29:18;;;;;;;28.08;12.45;;;;;;;;;;5050503;28;20659;-64
2022/02/02 10:31:49;;;;;;;27.40;13.65;;;;;;;;;;5050198;28;20025;-64
2022/02/02 10:34:16;;;;;;;27.92;12.77;;;;;;;;;;5050662;28;20749;-66
2022/02/02 10:36:43;;;;;;;26.35;13.02;;;;;;;;;;5050949;28;20027;-64
2022/02/02 10:39:13;;;;;;;21.58;10.05;;;;;;;;;;5050886;28;20112;-64
2022/02/02 10:41:46;;;;;;;23.25;9.88;;;;;;;;;;5054200;28;20048;-65
2022/02/02 10:44:22;;;;;;;24.27;10.50;;;;;;;;;;5054136;28;20129;-64
2022/02/02 10:47:01;;;;;;;25.13;11.18;;;;;;;;;;5053980;28;20028;-65
2022/02/02 10:52:28;;;;;;;24.25;10.63;;;;;;;;;;5054134;28;20547;-64
2022/02/02 10:55:36;;;;;;;22.25;10.32;;;;;;;;;;5053839;28;20067;-65
2022/02/02 11:08:54;;;;;;;19.55;9.52;;;;;;;;;;5070623;28;20036;-64
2022/02/02 11:11:20;;;;;;;19.88;8.88;;;;;;;;;;5071441;28;20113;-64
2022/02/02 11:13:47;;;;;;;18.50;9.60;;;;;;;;;;5071240;28;20043;-64
2022/02/02 11:16:19;;;;;;;22.05;9.20;;;;;;;;;;5071563;28;20059;-64
2022/02/02 11:18:46;;;;;;;22.27;9.93;;;;;;;;;;5071107;28;20040;-64
2022/02/02 11:21:18;;;;;;;19.05;9.70;;;;;;;;;;5071615;28;20468;-64
2022/02/02 11:23:53;;;;;;;17.73;9.38;;;;;;;;;;5054421;28;20036;-64
2022/02/02 11:26:45;;;;;;;18.77;9.40;;;;;;;;;;5070996;28;20033;-65
2022/02/02 11:29:31;;;;;;;17.92;8.63;;;;;;;;;;5067248;28;20048;-64
2022/02/02 11:32:02;;;;;;;20.90;9.30;;;;;;;;;;5070499;28;20732;-65
2022/02/02 11:34:28;;;;;;;19.25;9.32;;;;;;;;;;5070612;28;20037;-65
2022/02/02 11:36:55;;;;;;;18.50;9.23;;;;;;;;;;5069934;28;20031;-65
2022/02/02 11:39:37;;;;;;;19.05;10.23;;;;;;;;;;5043110;28;20105;-64
2022/02/02 11:42:15;;;;;;;16.85;9.25;;;;;;;;;;5033304;28;20397;-65
2022/02/02 11:45:03;;;;;;;19.40;9.13;;;;;;;;;;5033206;28;20095;-66
2022/02/02 11:47:44;;;;;;;18.35;8.20;;;;;;;;;;5032643;28;20017;-65
2022/02/02 11:50:10;;;;;;;16.75;8.32;;;;;;;;;;5040895;28;20033;-64
2022/02/02 11:52:38;;;;;;;18.70;9.65;;;;;;;;;;5036980;28;20033;-64
2022/02/02 11:55:25;;;;;;;21.55;9.35;;;;;;;;;;5032521;28;20033;-65
2022/02/02 11:57:58;;;;;;;19.15;9.77;;;;;;;;;;5027797;28;20048;-65
2022/02/02 12:10:51;;;;;;;20.88;11.02;;;;;;;;;;5052615;28;20029;-64
2022/02/02 12:49:21;;;;;;;37.55;17.23;;;;;;;;;;5029789;28;20057;-65
2022/02/02 12:57:19;;;;;;;20.25;11.10;;;;;;;;;;5029784;28;20023;-64
2022/02/02 13:02:18;;;;;;;25.00;13.63;;;;;;;;;;5041632;28;20041;-64
2022/02/02 13:04:45;;;;;;;24.63;13.23;;;;;;;;;;5030948;28;20100;-65
2022/02/02 13:07:18;;;;;;;25.02;13.75;;;;;;;;;;5031660;28;20079;-64
2022/02/02 13:09:47;;;;;;;28.13;12.65;;;;;;;;;;5038530;28;20059;-64
2022/02/02 13:12:36;;;;;;;26.60;13.20;;;;;;;;;;5040972;28;20017;-65
2022/02/02 13:20:33;;;;;;;24.42;13.60;;;;;;;;;;5051521;28;20043;-66
2022/02/02 13:23:12;;;;;;;23.77;12.52;;;;;;;;;;5051338;28;20090;-64
2022/02/02 13:25:41;;;;;;;21.92;11.70;;;;;;;;;;5051042;28;20029;-64
2022/02/02 13:28:08;;;;;;;21.08;11.35;;;;;;;;;;5031516;28;20116;-63
2022/02/02 13:30:42;;;;;;;20.10;11.70;;;;;;;;;;5038919;28;20108;-64
2022/02/02 13:33:13;;;;;;;23.75;11.88;;;;;;;;;;5030994;28;20739;-63
2022/02/02 13:35:52;;;;;;;21.75;11.80;;;;;;;;;;5031178;28;20075;-64
2022/02/02 13:38:37;;;;;;;27.15;13.00;;;;;;;;;;5031049;28;20029;-64
2022/02/02 13:47:05;;;;;;;24.45;12.52;;;;;;;;;;5027868;28;20036;-64
2022/02/02 13:52:27;;;;;;;22.92;11.93;;;;;;;;;;5028678;28;20068;-65
2022/02/02 13:54:48;;;;;;;24.73;13.05;;;;;;;;;;5027745;28;20030;-64
2022/02/02 13:57:44;;;;;;;26.50;13.02;;;;;;;;;;5028506;28;20148;-64
2022/02/02 14:11:04;;;;;;;25.00;13.70;;;;;;;;;;5028158;28;20036;-64
2022/02/02 14:32:42;;;;;;;26.52;13.10;;;;;;;;;;5041100;28;20045;-65
2022/02/02 14:35:10;;;;;;;23.67;13.43;;;;;;;;;;5031524;28;20075;-65
2022/02/02 14:37:41;;;;;;;25.25;12.82;;;;;;;;;;5030412;28;20022;-64
2022/02/02 14:40:55;;;;;;;26.70;14.00;;;;;;;;;;5030736;28;20386;-64
2022/02/02 14:43:03;;;;;;;28.15;13.73;;;;;;;;;;5029765;28;20053;-64
2022/02/02 14:45:33;;;;;;;26.42;13.55;;;;;;;;;;5030462;28;20021;-68
2022/02/02 14:48:08;;;;;;;27.08;14.65;;;;;;;;;;5030629;28;20498;-63
2022/02/02 14:50:50;;;;;;;26.60;14.73;;;;;;;;;;5029137;28;20362;-67
2022/02/02 14:53:32;;;;;;;28.40;15.35;;;;;;;;;;5030796;28;20484;-68
2022/02/02 15:28:50;;;;;;;15.45;8.15;;;;;;;;;;5033169;28;20148;-65
2022/02/02 15:31:16;;;;;;;11.88;6.20;;;;;;;;;;5033236;28;20057;-65
2022/02/02 15:33:45;;;;;;;13.80;7.85;;;;;;;;;;5033356;28;20690;-64
2022/02/02 15:38:54;;;;;;;19.42;8.75;;;;;;;;;;5033517;28;20133;-64
2022/02/02 15:41:31;;;;;;;18.38;8.82;;;;;;;;;;5033242;28;20465;-64
2022/02/02 16:03:23;;;;;;;12.80;6.90;;;;;;;;;;5069808;28;20052;-64
2022/02/02 16:05:53;;;;;;;13.80;7.45;;;;;;;;;;5070408;28;20595;-64
2022/02/02 16:08:23;;;;;;;16.13;8.00;;;;;;;;;;5070207;28;20024;-64
2022/02/02 16:16:11;;;;;;;15.50;8.00;;;;;;;;;;5069824;28;20036;-63
2022/02/02 16:37:33;;;;;;;13.25;6.82;;;;;;;;;;5059992;28;20044;-64
2022/02/02 16:40:00;;;;;;;11.05;6.60;;;;;;;;;;5051640;28;20025;-63
2022/02/02 16:45:12;;;;;;;15.65;7.07;;;;;;;;;;5051900;28;20569;-64
2022/02/02 16:47:38;;;;;;;31.02;12.75;;;;;;;;;;5051910;28;20025;-63
2022/02/02 16:50:05;;;;;;;19.17;8.85;;;;;;;;;;5051966;28;20033;-63
2022/02/02 16:52:33;;;;;;;19.10;8.55;;;;;;;;;;5051469;28;20024;-63
2022/02/02 16:55:05;;;;;;;15.10;8.55;;;;;;;;;;5051882;28;20108;-63
2022/02/02 17:37:49;;;;;;;14.93;7.28;;;;;;;;;;5068201;28;20128;-64
2022/02/02 18:20:37;;;;;;;15.82;8.55;;;;;;;;;;5039097;28;19913;-65
2022/02/02 18:25:48;;;;;;;19.42;9.98;;;;;;;;;;5068179;28;20033;-64
2022/02/02 18:31:10;;;;;;;16.17;8.88;;;;;;;;;;5064223;28;20025;-64
2022/02/02 18:33:51;;;;;;;20.40;10.25;;;;;;;;;;5047971;28;20056;-65
2022/02/02 18:36:22;;;;;;;19.33;10.88;;;;;;;;;;5047117;28;20492;-64
2022/02/02 19:01:56;;;;;;;15.48;8.40;;;;;;;;;;4989500;28;20047;-63
2022/02/02 19:53:45;;;;;;;16.38;8.07;;;;;;;;;;5052526;28;20032;-63
2022/02/02 20:03:51;;;;;;;18.15;8.75;;;;;;;;;;5053229;28;20519;-64
2022/02/02 20:08:58;;;;;;;14.18;6.88;;;;;;;;;;5045954;28;20037;-64
2022/02/02 20:11:27;;;;;;;14.90;7.00;;;;;;;;;;5043021;28;20051;-64
2022/02/02 20:13:53;;;;;;;14.35;7.00;;;;;;;;;;5051395;28;20037;-63
2022/02/02 20:16:19;;;;;;;15.48;6.70;;;;;;;;;;5052833;28;20021;-64
2022/02/02 20:18:48;;;;;;;13.15;5.72;;;;;;;;;;5052475;28;20032;-64
2022/02/02 20:21:17;;;;;;;13.07;6.18;;;;;;;;;;5052670;28;20488;-63
2022/02/02 20:23:47;;;;;;;14.15;6.63;;;;;;;;;;5052458;28;20037;-63
2022/02/02 20:26:16;;;;;;;11.82;5.93;;;;;;;;;;5049159;28;20047;-64
2022/02/02 20:28:43;;;;;;;12.00;5.10;;;;;;;;;;5041188;28;20021;-64
2022/02/02 20:31:09;;;;;;;9.68;4.90;;;;;;;;;;5031649;28;20376;-64
2022/02/02 20:33:35;;;;;;;9.40;4.60;;;;;;;;;;5032200;28;20029;-64
2022/02/02 20:36:02;;;;;;;10.70;4.95;;;;;;;;;;5032448;28;20036;-64
2022/02/02 20:38:28;;;;;;;10.20;4.43;;;;;;;;;;5032568;28;20480;-62
2022/02/02 20:40:54;;;;;;;7.40;4.22;;;;;;;;;;5032521;28;20033;-63
2022/02/02 20:43:48;;;;;;;9.35;4.38;;;;;;;;;;5032288;28;20036;-63
2022/02/02 21:10:17;;;;;;;9.77;5.53;;;;;;;;;;5051820;28;20120;-63
2022/02/02 21:15:31;;;;;;;8.52;4.22;;;;;;;;;;5051230;28;20102;-64
2022/02/02 21:18:05;;;;;;;10.15;5.28;;;;;;;;;;5051501;28;20021;-63
2022/02/02 21:20:40;;;;;;;8.40;4.15;;;;;;;;;;5044400;28;20388;-65
2022/02/02 21:23:13;;;;;;;10.88;4.97;;;;;;;;;;5050537;28;20064;-64
2022/02/02 21:25:45;;;;;;;10.45;5.38;;;;;;;;;;5032402;28;20032;-63
2022/02/02 21:28:11;;;;;;;10.10;4.90;;;;;;;;;;5031597;28;20504;-64
2022/02/02 21:30:41;;;;;;;12.45;4.90;;;;;;;;;;5031603;28;20041;-63
2022/02/02 21:33:08;;;;;;;11.57;4.90;;;;;;;;;;5031373;28;20030;-64
2022/02/02 21:35:36;;;;;;;9.63;4.60;;;;;;;;;;5031050;28;20100;-64
2022/02/02 21:38:08;;;;;;;10.13;4.53;;;;;;;;;;5031292;28;20029;-64
2022/02/02 21:40:34;;;;;;;10.10;4.25;;;;;;;;;;5032945;28;20029;-63
2022/02/02 21:43:00;;;;;;;9.80;4.43;;;;;;;;;;5031028;28;20041;-63
2022/02/02 21:45:28;;;;;;;9.85;4.35;;;;;;;;;;5031810;28;20464;-64
2022/02/02 21:47:54;;;;;;;10.95;4.40;;;;;;;;;;5033511;28;20460;-64
2022/02/02 21:50:21;;;;;;;12.02;4.47;;;;;;;;;;5039389;28;20033;-64
2022/02/02 21:52:47;;;;;;;9.98;5.78;;;;;;;;;;5031995;28;20036;-64
2022/02/02 21:55:14;;;;;;;10.23;4.65;;;;;;;;;;5031271;28;20028;-64
2022/02/02 21:57:40;;;;;;;10.85;5.15;;;;;;;;;;5046501;28;20112;-64
2022/02/02 22:00:10;;;;;;;12.00;5.22;;;;;;;;;;5051306;28;20032;-64
2022/02/02 22:02:36;;;;;;;14.18;5.53;;;;;;;;;;5050692;28;20045;-64
2022/02/02 22:05:06;;;;;;;15.77;6.07;;;;;;;;;;5051099;28;20393;-64
2022/02/02 22:07:32;;;;;;;12.90;5.45;;;;;;;;;;5050900;28;20017;-64
2022/02/02 22:10:00;;;;;;;8.65;5.03;;;;;;;;;;5053465;28;20470;-63
2022/02/02 22:12:27;;;;;;;12.27;5.25;;;;;;;;;;5050485;28;20028;-64
2022/02/02 22:14:54;;;;;;;10.85;5.10;;;;;;;;;;5043971;28;20026;-64
2022/02/02 22:17:23;;;;;;;11.45;5.40;;;;;;;;;;5030971;28;20380;-64
2022/02/02 22:19:53;;;;;;;11.27;4.65;;;;;;;;;;5030870;28;20032;-64
2022/02/02 22:22:19;;;;;;;10.93;4.63;;;;;;;;;;5041799;28;20037;-64
2022/02/02 22:24:46;;;;;;;11.98;4.85;;;;;;;;;;5035841;28;20472;-63
2022/02/02 22:27:12;;;;;;;9.40;4.05;;;;;;;;;;5030584;28;20033;-64
2022/02/02 22:29:38;;;;;;;7.97;3.90;;;;;;;;;;5043403;28;20025;-63
2022/02/02 22:32:05;;;;;;;8.65;3.88;;;;;;;;;;5049956;28;20498;-64
2022/02/02 22:34:31;;;;;;;8.93;4.22;;;;;;;;;;5044663;28;20053;-63
2022/02/02 22:36:57;;;;;;;8.88;3.92;;;;;;;;;;5042878;28;20377;-63
2022/02/02 22:39:23;;;;;;;8.55;3.90;;;;;;;;;;5053881;28;20036;-64
2022/02/02 22:41:50;;;;;;;11.52;3.83;;;;;;;;;;5054093;28;20156;-64
2022/02/02 22:44:17;;;;;;;7.70;3.35;;;;;;;;;;5054320;28;20811;-64
2022/02/02 22:46:43;;;;;;;16.48;8.50;;;;;;;;;;5054229;28;20029;-63
2022/02/02 22:49:09;;;;;;;11.40;5.63;;;;;;;;;;5054441;28;20033;-64
2022/02/02 22:51:35;;;;;;;12.85;4.82;;;;;;;;;;5054605;28;20025;-64
2022/02/02 22:54:02;;;;;;;10.93;4.03;;;;;;;;;;5054284;28;20079;-64
2022/02/02 22:56:28;;;;;;;9.70;4.18;;;;;;;;;;5054437;28;20075;-64
2022/02/02 22:58:57;;;;;;;12.15;4.43;;;;;;;;;;5050979;28;20083;-64
2022/02/02 23:01:25;;;;;;;9.98;4.35;;;;;;;;;;5048487;28;20033;-64
2022/02/02 23:03:53;;;;;;;10.88;4.10;;;;;;;;;;5053077;28;20072;-63
2022/02/02 23:06:19;;;;;;;11.38;4.25;;;;;;;;;;5054330;28;20017;-64
2022/02/02 23:08:45;;;;;;;13.93;5.50;;;;;;;;;;5053990;28;20388;-64
2022/02/02 23:11:12;;;;;;;203.40;105.80;;;;;;;;;;5045292;28;20074;-64
2022/02/02 23:13:40;;;;;;;103.72;54.55;;;;;;;;;;5053994;28;20103;-64
2022/02/02 23:16:16;;;;;;;24.45;12.23;;;;;;;;;;5052814;28;20430;-63
2022/02/02 23:18:42;;;;;;;14.20;4.78;;;;;;;;;;5054173;28;20025;-64
2022/02/02 23:21:10;;;;;;;11.85;4.40;;;;;;;;;;5054100;28;20461;-64
2022/02/02 23:23:40;;;;;;;9.82;3.85;;;;;;;;;;5053997;28;20120;-64
2022/02/02 23:26:06;;;;;;;10.63;4.07;;;;;;;;;;5054028;28;20079;-64
2022/02/02 23:28:40;;;;;;;9.43;4.10;;;;;;;;;;5054012;28;20476;-64
2022/02/02 23:31:09;;;;;;;8.70;3.63;;;;;;;;;;5053681;28;20036;-64
2022/02/02 23:33:37;;;;;;;12.18;4.22;;;;;;;;;;5053667;28;20025;-64
2022/02/02 23:36:04;;;;;;;11.98;4.28;;;;;;;;;;5053711;28;20017;-64
2022/02/02 23:38:30;;;;;;;9.27;3.97;;;;;;;;;;5053439;28;20104;-64
2022/02/02 23:43:34;;;;;;;11.73;3.88;;;;;;;;;;5053442;28;20033;-64
2022/02/02 23:46:15;;;;;;;9.82;3.58;;;;;;;;;;5053505;28;20104;-64
2022/02/02 23:48:50;;;;;;;10.38;3.88;;;;;;;;;;5052465;28;20025;-64
2022/02/02 23:51:27;;;;;;;8.80;3.25;;;;;;;;;;5051884;28;20025;-64
2022/02/02 23:53:54;;;;;;;9.02;4.00;;;;;;;;;;5053368;28;20519;-64
2022/02/02 23:58:51;;;;;;;12.45;4.60;;;;;;;;;;5053230;28;20041;-64
